Time;durP1;ratioP1;P1;durP2;ratioP2;P2;SDS_P1;SDS_P2;PMS_P1;PMS_P2;Temp;Humidity;BMP_temperature;BMP_pressure;BME280_temperature;BME280_humidity;BME280_pressure;Samples;Min_cycle;Max_cycle;Signal;HPM_P1;HPM_P2
2022/09/29 00:01:30;;;;;;;0.20;0.20;;;;;;;;;;5021346;28;20046;-78
2022/09/29 00:04:00;;;;;;;0.10;0.10;;;;;;;;;;5028361;28;20053;-78
2022/09/29 00:06:28;;;;;;;0.30;0.25;;;;;;;;;;5028829;28;20505;-77
2022/09/29 00:08:58;;;;;;;0.10;0.10;;;;;;;;;;5030713;28;20060;-77
2022/09/29 00:11:26;;;;;;;0.15;0.15;;;;;;;;;;5027232;28;20050;-78
2022/09/29 00:13:55;;;;;;;0.40;0.30;;;;;;;;;;5020991;28;20059;-78
2022/09/29 00:16:23;;;;;;;0.38;0.38;;;;;;;;;;5027637;28;20086;-77
2022/09/29 00:18:54;;;;;;;1.27;0.35;;;;;;;;;;5024472;28;20568;-78
2022/09/29 00:21:24;;;;;;;3.30;0.90;;;;;;;;;;5017951;28;20413;-77
2022/09/29 00:23:52;;;;;;;0.10;0.10;;;;;;;;;;5026347;28;20045;-77
2022/09/29 00:26:22;;;;;;;0.20;0.20;;;;;;;;;;5023366;28;20053;-78
2022/09/29 00:28:52;;;;;;;0.20;0.20;;;;;;;;;;5027640;28;20473;-77
2022/09/29 00:31:21;;;;;;;0.45;0.40;;;;;;;;;;5027695;28;20045;-78
2022/09/29 00:33:50;;;;;;;0.28;0.20;;;;;;;;;;5028288;28;20046;-77
2022/09/29 00:36:19;;;;;;;0.10;0.10;;;;;;;;;;5021187;28;20041;-78
2022/09/29 00:38:49;;;;;;;0.80;0.80;;;;;;;;;;5030297;28;20049;-77
2022/09/29 00:41:23;;;;;;;1.33;0.20;;;;;;;;;;5021488;28;20049;-78
2022/09/29 00:43:54;;;;;;;0.35;0.20;;;;;;;;;;5027958;28;20072;-77
2022/09/29 00:46:26;;;;;;;0.32;0.28;;;;;;;;;;5026357;28;20045;-78
2022/09/29 00:48:55;;;;;;;0.50;0.30;;;;;;;;;;5023282;28;20053;-77
2022/09/29 00:51:25;;;;;;;0.32;0.32;;;;;;;;;;5025707;28;20049;-77
2022/09/29 00:53:54;;;;;;;0.28;0.28;;;;;;;;;;5025170;28;20057;-77
2022/09/29 00:56:23;;;;;;;0.20;0.20;;;;;;;;;;5028242;28;20053;-77
2022/09/29 00:58:54;;;;;;;0.30;0.30;;;;;;;;;;5024586;28;20048;-78
2022/09/29 01:01:23;;;;;;;0.10;0.10;;;;;;;;;;5024183;28;20052;-78
2022/09/29 01:03:54;;;;;;;0.20;0.20;;;;;;;;;;5028702;28;20417;-77
2022/09/29 01:06:25;;;;;;;0.10;0.10;;;;;;;;;;5029189;28;20045;-78
2022/09/29 01:08:57;;;;;;;0.70;0.17;;;;;;;;;;5028102;28;20050;-77
2022/09/29 01:11:25;;;;;;;3.03;0.65;;;;;;;;;;5028744;28;20494;-78
2022/09/29 01:13:56;;;;;;;0.10;0.10;;;;;;;;;;5026953;28;20058;-77
2022/09/29 01:16:24;;;;;;;0.28;0.28;;;;;;;;;;5089276;22;20054;-91
2022/09/29 01:18:53;;;;;;;0.10;0.10;;;;;;;;;;4998348;28;20065;-92
2022/09/29 01:21:27;;;;;;;0.63;0.40;;;;;;;;;;4985250;28;20048;-91
2022/09/29 01:24:15;;;;;;;0.70;0.40;;;;;;;;;;4994249;23;20576;-88
2022/09/29 01:26:51;;;;;;;0.43;0.30;;;;;;;;;;5040482;28;20053;-93
2022/09/29 01:29:32;;;;;;;0.57;0.30;;;;;;;;;;5040034;28;20405;-91
2022/09/29 01:32:07;;;;;;;0.20;0.20;;;;;;;;;;5043837;28;20045;-91
2022/09/29 01:34:39;;;;;;;0.30;0.30;;;;;;;;;;5049171;28;20496;-93
2022/09/29 01:37:12;;;;;;;1.15;0.40;;;;;;;;;;5047842;28;20067;-93
2022/09/29 01:39:42;;;;;;;0.70;0.60;;;;;;;;;;5045367;28;20052;-91
2022/09/29 01:42:13;;;;;;;0.30;0.22;;;;;;;;;;5045544;28;20170;-90
2022/09/29 01:44:43;;;;;;;4.13;0.77;;;;;;;;;;5042699;28;20042;-94
2022/09/29 01:47:15;;;;;;;0.20;0.20;;;;;;;;;;5029329;28;20337;-92
2022/09/29 01:49:45;;;;;;;0.20;0.17;;;;;;;;;;5025280;28;20063;-92
2022/09/29 01:52:15;;;;;;;0.45;0.25;;;;;;;;;;5027963;28;20053;-91
2022/09/29 01:54:46;;;;;;;0.43;0.30;;;;;;;;;;5011461;28;20050;-90
2022/09/29 01:57:16;;;;;;;0.22;0.20;;;;;;;;;;5027212;28;20046;-93
2022/09/29 01:59:46;;;;;;;0.20;0.20;;;;;;;;;;5025776;28;20053;-93
2022/09/29 02:02:18;;;;;;;1.55;0.20;;;;;;;;;;5025668;28;20056;-92
2022/09/29 02:04:49;;;;;;;0.28;0.28;;;;;;;;;;5020486;28;20134;-92
2022/09/29 02:07:20;;;;;;;0.20;0.20;;;;;;;;;;5027642;28;20038;-93
2022/09/29 02:09:53;;;;;;;0.45;0.30;;;;;;;;;;5028482;28;20049;-94
2022/09/29 02:12:24;;;;;;;1.08;0.65;;;;;;;;;;5025324;28;20042;-91
2022/09/29 02:14:54;;;;;;;0.22;0.22;;;;;;;;;;5023849;28;20053;-91
2022/09/29 02:17:27;;;;;;;0.47;0.47;;;;;;;;;;5026386;28;20046;-90
2022/09/29 02:19:55;;;;;;;0.17;0.17;;;;;;;;;;5024172;28;20485;-93
2022/09/29 02:22:24;;;;;;;0.20;0.20;;;;;;;;;;5027923;28;20061;-91
2022/09/29 02:24:53;;;;;;;0.32;0.25;;;;;;;;;;5031369;28;20060;-93
2022/09/29 02:27:21;;;;;;;0.08;0.08;;;;;;;;;;5045801;28;20037;-91
2022/09/29 02:29:50;;;;;;;0.52;0.52;;;;;;;;;;5048306;28;20492;-93
2022/09/29 02:32:19;;;;;;;2.03;0.38;;;;;;;;;;5046452;28;20063;-93
2022/09/29 02:34:50;;;;;;;0.75;0.35;;;;;;;;;;5040947;28;20402;-92
2022/09/29 02:37:36;;;;;;;0.20;0.20;;;;;;;;;;5029232;28;20071;-90
2022/09/29 02:40:17;;;;;;;0.20;0.10;;;;;;;;;;5020924;28;20055;-91
2022/09/29 02:42:51;;;;;;;0.73;0.73;;;;;;;;;;5027971;28;20421;-93
2022/09/29 02:45:24;;;;;;;0.25;0.20;;;;;;;;;;5027834;28;20064;-92
2022/09/29 02:47:59;;;;;;;0.10;0.10;;;;;;;;;;5027215;28;20046;-91
2022/09/29 02:50:33;;;;;;;0.10;0.10;;;;;;;;;;5032333;28;20041;-94
2022/09/29 02:53:05;;;;;;;0.32;0.20;;;;;;;;;;5028389;28;20060;-92
2022/09/29 02:55:35;;;;;;;1.17;0.30;;;;;;;;;;5032490;28;20050;-93
2022/09/29 02:58:06;;;;;;;0.20;0.20;;;;;;;;;;5031996;28;20053;-91
2022/09/29 03:00:35;;;;;;;0.28;0.28;;;;;;;;;;5024887;28;20053;-92
2022/09/29 03:03:03;;;;;;;0.17;0.17;;;;;;;;;;5028016;28;20517;-93
2022/09/29 03:05:33;;;;;;;0.17;0.17;;;;;;;;;;5033135;28;20044;-93
2022/09/29 03:08:02;;;;;;;0.32;0.32;;;;;;;;;;5029949;28;20064;-92
2022/09/29 03:10:30;;;;;;;0.10;0.10;;;;;;;;;;5028916;28;20434;-92
2022/09/29 03:12:58;;;;;;;0.20;0.20;;;;;;;;;;5028080;28;20045;-88
2022/09/29 03:15:27;;;;;;;0.30;0.30;;;;;;;;;;5021153;28;20053;-91
2022/09/29 03:17:56;;;;;;;0.20;0.20;;;;;;;;;;5026752;28;20492;-93
2022/09/29 03:20:25;;;;;;;0.52;0.20;;;;;;;;;;5031066;28;20505;-91
2022/09/29 03:22:57;;;;;;;0.10;0.10;;;;;;;;;;5025251;28;20056;-91
2022/09/29 03:25:26;;;;;;;0.28;0.25;;;;;;;;;;5016127;28;20087;-92
2022/09/29 03:27:54;;;;;;;0.50;0.50;;;;;;;;;;5030841;28;20551;-89
2022/09/29 03:30:22;;;;;;;0.13;0.13;;;;;;;;;;5029886;28;20407;-93
2022/09/29 03:32:51;;;;;;;0.38;0.38;;;;;;;;;;5026560;28;20053;-93
2022/09/29 03:35:19;;;;;;;0.10;0.10;;;;;;;;;;5038637;28;20045;-92
2022/09/29 03:37:47;;;;;;;0.10;0.10;;;;;;;;;;5047803;28;20045;-93
2022/09/29 03:40:17;;;;;;;0.22;0.22;;;;;;;;;;5048904;28;20045;-92
2022/09/29 03:42:46;;;;;;;0.32;0.30;;;;;;;;;;5046800;28;20048;-92
2022/09/29 03:45:15;;;;;;;0.35;0.35;;;;;;;;;;5050559;28;20399;-93
2022/09/29 03:47:43;;;;;;;0.38;0.32;;;;;;;;;;5047537;28;20045;-92
2022/09/29 03:50:12;;;;;;;0.30;0.30;;;;;;;;;;5050540;28;20345;-92
2022/09/29 03:52:40;;;;;;;0.20;0.20;;;;;;;;;;5043941;28;20053;-91
2022/09/29 03:55:09;;;;;;;0.75;0.63;;;;;;;;;;5048646;28;20491;-93
2022/09/29 03:57:38;;;;;;;0.35;0.25;;;;;;;;;;5049169;28;20060;-92
2022/09/29 04:00:07;;;;;;;0.80;0.30;;;;;;;;;;5036843;28;20045;-91
2022/09/29 04:02:36;;;;;;;0.32;0.32;;;;;;;;;;5045507;28;20048;-90
2022/09/29 04:05:04;;;;;;;0.20;0.20;;;;;;;;;;5048174;28;20083;-91
2022/09/29 04:07:33;;;;;;;0.10;0.10;;;;;;;;;;5051317;28;20045;-93
2022/09/29 04:10:01;;;;;;;0.30;0.30;;;;;;;;;;5049638;28;20049;-93
2022/09/29 04:12:29;;;;;;;0.55;0.38;;;;;;;;;;5049169;28;20049;-91
2022/09/29 04:14:59;;;;;;;0.40;0.40;;;;;;;;;;5044596;28;20407;-91
2022/09/29 04:17:27;;;;;;;0.30;0.22;;;;;;;;;;5050469;28;20044;-91
2022/09/29 04:19:56;;;;;;;0.00;0.00;;;;;;;;;;5045150;28;20092;-92
2022/09/29 04:22:24;;;;;;;0.20;0.20;;;;;;;;;;5044521;28;20452;-91
2022/09/29 04:24:52;;;;;;;0.52;0.30;;;;;;;;;;5041122;28;20057;-91
2022/09/29 04:27:21;;;;;;;2.40;0.20;;;;;;;;;;5049238;28;20053;-92
2022/09/29 04:29:49;;;;;;;0.10;0.10;;;;;;;;;;5050015;28;20059;-91
2022/09/29 04:32:20;;;;;;;0.10;0.10;;;;;;;;;;5050436;28;20045;-91
2022/09/29 04:34:48;;;;;;;1.38;0.38;;;;;;;;;;5037833;28;20050;-91
2022/09/29 04:37:16;;;;;;;0.25;0.15;;;;;;;;;;5022103;28;20036;-91
2022/09/29 04:39:45;;;;;;;0.10;0.10;;;;;;;;;;5026548;28;20516;-91
2022/09/29 04:42:13;;;;;;;0.17;0.17;;;;;;;;;;5031722;28;20049;-91
2022/09/29 04:44:41;;;;;;;0.20;0.20;;;;;;;;;;5033266;28;20045;-92
2022/09/29 04:47:10;;;;;;;0.10;0.10;;;;;;;;;;5043855;28;20049;-88
2022/09/29 04:49:39;;;;;;;1.42;0.70;;;;;;;;;;5042702;28;20055;-92
2022/09/29 04:52:08;;;;;;;0.20;0.20;;;;;;;;;;5041556;28;20053;-91
2022/09/29 04:54:36;;;;;;;1.83;0.93;;;;;;;;;;5042851;28;20045;-90
2022/09/29 04:57:05;;;;;;;0.40;0.20;;;;;;;;;;5045757;28;20049;-91
2022/09/29 04:59:34;;;;;;;0.40;0.30;;;;;;;;;;5041623;28;20053;-92
2022/09/29 05:02:02;;;;;;;0.30;0.30;;;;;;;;;;5046574;28;20055;-90
2022/09/29 05:04:31;;;;;;;0.30;0.30;;;;;;;;;;5048869;28;20064;-90
2022/09/29 05:07:00;;;;;;;0.20;0.20;;;;;;;;;;5049228;28;20056;-90
2022/09/29 05:09:29;;;;;;;3.40;0.68;;;;;;;;;;5047574;28;20041;-89
2022/09/29 05:12:01;;;;;;;0.70;0.68;;;;;;;;;;5037435;28;20053;-89
2022/09/29 05:14:29;;;;;;;0.40;0.40;;;;;;;;;;5047410;28;21228;-89
2022/09/29 05:16:58;;;;;;;0.88;0.50;;;;;;;;;;5045986;28;21184;-91
2022/09/29 05:19:27;;;;;;;1.55;0.28;;;;;;;;;;5039990;28;20041;-92
2022/09/29 05:21:56;;;;;;;1.05;0.25;;;;;;;;;;5039934;28;21429;-90
2022/09/29 05:24:26;;;;;;;0.30;0.30;;;;;;;;;;5041004;28;20412;-91
2022/09/29 05:26:55;;;;;;;1.65;0.45;;;;;;;;;;5027001;28;20115;-92
2022/09/29 05:29:26;;;;;;;0.20;0.20;;;;;;;;;;5019575;28;20057;-92
2022/09/29 05:31:57;;;;;;;0.50;0.50;;;;;;;;;;5025278;28;20072;-93
2022/09/29 05:34:26;;;;;;;5.55;0.35;;;;;;;;;;5022887;28;20587;-94
2022/09/29 05:36:55;;;;;;;0.70;0.20;;;;;;;;;;5015109;28;20383;-92
2022/09/29 05:39:25;;;;;;;1.13;0.55;;;;;;;;;;5017730;28;20051;-91
2022/09/29 05:41:54;;;;;;;0.30;0.30;;;;;;;;;;5024455;28;20473;-91
2022/09/29 05:44:26;;;;;;;0.22;0.22;;;;;;;;;;5029328;28;20141;-90
2022/09/29 05:46:55;;;;;;;0.40;0.40;;;;;;;;;;5043275;28;20135;-91
2022/09/29 05:49:23;;;;;;;0.60;0.30;;;;;;;;;;5044735;28;20059;-93
2022/09/29 05:51:51;;;;;;;0.55;0.55;;;;;;;;;;5037569;28;20394;-91
2022/09/29 05:54:20;;;;;;;0.10;0.10;;;;;;;;;;5043555;28;20049;-92
2022/09/29 05:56:50;;;;;;;0.35;0.32;;;;;;;;;;5048280;28;20245;-93
2022/09/29 05:59:18;;;;;;;0.82;0.45;;;;;;;;;;5037125;28;20147;-91
2022/09/29 06:01:47;;;;;;;1.52;0.57;;;;;;;;;;5046508;28;20138;-94
2022/09/29 06:04:16;;;;;;;1.20;0.30;;;;;;;;;;5038246;28;20056;-94
2022/09/29 06:06:46;;;;;;;0.63;0.52;;;;;;;;;;5026478;28;20564;-92
2022/09/29 06:09:15;;;;;;;0.43;0.43;;;;;;;;;;5021634;28;20049;-93
2022/09/29 06:11:43;;;;;;;0.57;0.38;;;;;;;;;;5027676;28;20587;-94
2022/09/29 06:14:13;;;;;;;0.40;0.40;;;;;;;;;;5030147;28;20098;-92
2022/09/29 06:16:41;;;;;;;0.55;0.55;;;;;;;;;;5049638;28;20061;-92
2022/09/29 06:19:10;;;;;;;0.52;0.52;;;;;;;;;;5046294;28;20053;-92
2022/09/29 06:21:38;;;;;;;0.32;0.32;;;;;;;;;;5050566;28;20508;-92
2022/09/29 06:24:07;;;;;;;1.10;0.38;;;;;;;;;;5038742;28;20052;-91
2022/09/29 06:26:35;;;;;;;1.23;0.50;;;;;;;;;;5031401;28;20102;-92
2022/09/29 06:29:04;;;;;;;0.50;0.50;;;;;;;;;;5025093;28;20454;-92
2022/09/29 06:31:34;;;;;;;0.20;0.20;;;;;;;;;;5031137;28;20045;-91
2022/09/29 06:34:03;;;;;;;0.30;0.30;;;;;;;;;;5030112;28;20078;-92
2022/09/29 06:39:20;;;;;;;0.95;0.45;;;;;;;;;;5019830;28;20922;-91
2022/09/29 06:41:52;;;;;;;0.13;0.13;;;;;;;;;;5025251;28;20046;-92
2022/09/29 06:44:21;;;;;;;1.00;0.90;;;;;;;;;;5021817;28;20049;-92
2022/09/29 06:46:51;;;;;;;0.75;0.57;;;;;;;;;;5046882;28;20590;-91
2022/09/29 06:49:20;;;;;;;0.30;0.30;;;;;;;;;;5054042;28;20053;-91
2022/09/29 06:51:48;;;;;;;0.65;0.40;;;;;;;;;;5048834;28;20053;-90
2022/09/29 06:54:19;;;;;;;0.38;0.38;;;;;;;;;;5050928;28;20719;-91
2022/09/29 06:56:48;;;;;;;0.30;0.30;;;;;;;;;;5046831;28;20056;-92
2022/09/29 06:59:17;;;;;;;1.08;0.38;;;;;;;;;;5049991;28;20336;-92
2022/09/29 07:01:49;;;;;;;0.90;0.20;;;;;;;;;;5052719;28;20041;-92
2022/09/29 07:04:20;;;;;;;0.98;0.45;;;;;;;;;;5043437;28;20037;-91
2022/09/29 07:06:50;;;;;;;0.45;0.45;;;;;;;;;;5028882;28;20077;-91
2022/09/29 07:09:18;;;;;;;0.20;0.20;;;;;;;;;;5031351;28;20053;-90
2022/09/29 07:11:48;;;;;;;0.47;0.47;;;;;;;;;;5028394;28;20067;-91
2022/09/29 07:14:17;;;;;;;0.73;0.40;;;;;;;;;;5026238;28;20056;-91
2022/09/29 07:16:47;;;;;;;0.32;0.30;;;;;;;;;;5028331;28;20486;-91
2022/09/29 07:19:16;;;;;;;0.20;0.20;;;;;;;;;;5029763;28;20057;-91
2022/09/29 07:21:47;;;;;;;0.73;0.30;;;;;;;;;;5028428;28;20489;-91
2022/09/29 07:24:16;;;;;;;0.75;0.40;;;;;;;;;;5027030;28;20057;-90
2022/09/29 07:26:44;;;;;;;0.43;0.20;;;;;;;;;;5027397;28;20049;-91
2022/09/29 07:29:12;;;;;;;0.45;0.40;;;;;;;;;;5028704;28;20046;-90
2022/09/29 07:31:45;;;;;;;0.30;0.30;;;;;;;;;;5029627;28;20045;-90
2022/09/29 07:34:19;;;;;;;0.43;0.20;;;;;;;;;;5030192;28;20428;-89
2022/09/29 07:36:50;;;;;;;0.60;0.45;;;;;;;;;;5030356;28;20057;-89
2022/09/29 07:39:20;;;;;;;1.55;0.25;;;;;;;;;;5031469;28;20139;-90
2022/09/29 07:41:49;;;;;;;0.43;0.43;;;;;;;;;;5032346;28;20080;-90
2022/09/29 07:44:18;;;;;;;0.28;0.28;;;;;;;;;;5030858;28;20080;-90
2022/09/29 07:46:49;;;;;;;0.30;0.30;;;;;;;;;;5046264;28;20056;-90
2022/09/29 07:49:17;;;;;;;0.30;0.30;;;;;;;;;;5048734;28;20049;-89
2022/09/29 07:51:46;;;;;;;0.10;0.10;;;;;;;;;;5051208;28;20048;-89
2022/09/29 07:54:16;;;;;;;0.13;0.13;;;;;;;;;;5042336;28;20049;-91
2022/09/29 07:56:45;;;;;;;0.22;0.22;;;;;;;;;;5032275;28;20376;-91
2022/09/29 07:59:14;;;;;;;0.73;0.45;;;;;;;;;;5024308;28;20136;-90
2022/09/29 08:01:42;;;;;;;1.30;0.57;;;;;;;;;;5026031;28;20053;-90
2022/09/29 08:04:11;;;;;;;0.52;0.50;;;;;;;;;;5029790;28;20073;-89
2022/09/29 08:06:41;;;;;;;0.55;0.40;;;;;;;;;;5022779;28;20054;-90
2022/09/29 08:09:09;;;;;;;0.13;0.13;;;;;;;;;;5026033;28;20053;-90
2022/09/29 08:11:41;;;;;;;0.73;0.30;;;;;;;;;;5019370;28;20508;-90
2022/09/29 08:14:10;;;;;;;0.70;0.65;;;;;;;;;;5029986;28;20113;-89
2022/09/29 08:16:39;;;;;;;0.28;0.28;;;;;;;;;;5049607;28;20048;-91
2022/09/29 08:19:08;;;;;;;0.20;0.20;;;;;;;;;;5048322;28;20408;-91
2022/09/29 08:21:37;;;;;;;0.60;0.50;;;;;;;;;;5049555;28;20489;-91
2022/09/29 08:24:06;;;;;;;2.63;0.38;;;;;;;;;;5042036;28;20144;-90
2022/09/29 08:26:35;;;;;;;0.52;0.52;;;;;;;;;;5041219;28;20083;-90
2022/09/29 08:29:13;;;;;;;0.10;0.10;;;;;;;;;;5046872;28;20128;-90
2022/09/29 08:31:45;;;;;;;0.20;0.20;;;;;;;;;;5050977;28;20053;-91
2022/09/29 08:34:14;;;;;;;1.13;0.40;;;;;;;;;;5053537;28;20040;-90
2022/09/29 08:36:43;;;;;;;0.10;0.10;;;;;;;;;;5038450;28;20049;-91
2022/09/29 08:39:13;;;;;;;0.10;0.10;;;;;;;;;;5048671;28;20374;-91
2022/09/29 08:41:50;;;;;;;0.17;0.17;;;;;;;;;;5053589;28;20131;-90
2022/09/29 08:44:23;;;;;;;1.17;0.45;;;;;;;;;;5047172;28;20045;-91
2022/09/29 08:47:08;;;;;;;0.10;0.10;;;;;;;;;;5048078;28;20444;-90
2022/09/29 08:49:40;;;;;;;0.38;0.17;;;;;;;;;;5044173;28;20548;-91
2022/09/29 08:52:12;;;;;;;2.05;0.20;;;;;;;;;;5048815;28;20049;-90
2022/09/29 08:54:46;;;;;;;0.10;0.10;;;;;;;;;;5043605;28;20461;-91
2022/09/29 08:57:18;;;;;;;0.10;0.10;;;;;;;;;;5042447;28;20056;-90
2022/09/29 08:59:52;;;;;;;0.10;0.10;;;;;;;;;;5048552;28;20044;-92
2022/09/29 09:02:38;;;;;;;0.15;0.15;;;;;;;;;;5050267;28;21208;-92
2022/09/29 09:05:24;;;;;;;0.10;0.10;;;;;;;;;;5033058;28;20515;-90
2022/09/29 09:07:58;;;;;;;0.10;0.10;;;;;;;;;;5029760;28;20087;-92
2022/09/29 09:10:36;;;;;;;0.20;0.20;;;;;;;;;;5047780;28;20044;-90
2022/09/29 09:13:22;;;;;;;0.10;0.10;;;;;;;;;;5049727;28;20098;-90
2022/09/29 09:15:58;;;;;;;2.72;0.40;;;;;;;;;;5036796;28;20057;-89
2022/09/29 09:18:42;;;;;;;0.13;0.13;;;;;;;;;;5044615;28;20282;-89
2022/09/29 09:21:15;;;;;;;0.30;0.30;;;;;;;;;;5054698;28;20420;-89
2022/09/29 09:23:51;;;;;;;0.05;0.05;;;;;;;;;;5042482;28;20139;-89
2022/09/29 09:26:28;;;;;;;0.20;0.20;;;;;;;;;;5037635;28;20052;-90
2022/09/29 09:29:00;;;;;;;0.20;0.20;;;;;;;;;;5041147;28;20131;-91
2022/09/29 09:31:34;;;;;;;0.00;0.00;;;;;;;;;;5044228;28;20057;-90
2022/09/29 09:34:04;;;;;;;0.10;0.10;;;;;;;;;;5049535;28;20128;-89
2022/09/29 09:36:36;;;;;;;0.10;0.10;;;;;;;;;;5023527;28;20604;-90
2022/09/29 09:39:07;;;;;;;0.10;0.10;;;;;;;;;;5028639;28;20049;-89
2022/09/29 09:41:37;;;;;;;0.08;0.08;;;;;;;;;;5029528;28;20474;-88
2022/09/29 09:44:08;;;;;;;0.10;0.10;;;;;;;;;;5019638;28;20452;-91
2022/09/29 09:46:40;;;;;;;0.13;0.13;;;;;;;;;;5040958;28;20505;-89
2022/09/29 09:49:15;;;;;;;0.10;0.10;;;;;;;;;;5047563;28;20060;-91
2022/09/29 09:51:46;;;;;;;0.88;0.47;;;;;;;;;;5048309;28;20650;-92
2022/09/29 09:54:16;;;;;;;0.10;0.10;;;;;;;;;;5040163;28;20384;-93
2022/09/29 09:56:59;;;;;;;0.10;0.10;;;;;;;;;;5047110;28;20135;-93
2022/09/29 09:59:34;;;;;;;0.25;0.17;;;;;;;;;;5045607;28;20106;-95
2022/09/29 10:02:04;;;;;;;0.20;0.20;;;;;;;;;;5039752;28;20123;-94
2022/09/29 10:04:33;;;;;;;0.38;0.20;;;;;;;;;;5044526;28;20060;-95
2022/09/29 10:07:02;;;;;;;0.30;0.20;;;;;;;;;;5047855;28;20059;-96
2022/09/29 10:09:31;;;;;;;0.10;0.10;;;;;;;;;;5047917;28;20075;-96
2022/09/29 10:11:59;;;;;;;0.00;0.00;;;;;;;;;;5047366;28;20048;-95
2022/09/29 10:14:29;;;;;;;0.15;0.15;;;;;;;;;;5056205;28;20455;-96
2022/09/29 10:16:59;;;;;;;0.10;0.10;;;;;;;;;;5045878;28;20045;-95
2022/09/29 10:19:43;;;;;;;0.10;0.10;;;;;;;;;;5042055;28;20157;-94
2022/09/29 10:22:14;;;;;;;0.32;0.28;;;;;;;;;;5047124;28;20456;-96
2022/09/29 10:24:43;;;;;;;0.10;0.10;;;;;;;;;;5043343;28;20122;-94
2022/09/29 10:27:11;;;;;;;0.10;0.10;;;;;;;;;;5047216;28;20178;-96
2022/09/29 10:29:42;;;;;;;0.10;0.10;;;;;;;;;;5059037;28;20220;-92
2022/09/29 10:32:11;;;;;;;0.00;0.00;;;;;;;;;;5058587;28;20045;-93
2022/09/29 10:34:41;;;;;;;0.17;0.17;;;;;;;;;;5050303;28;20171;-95
2022/09/29 10:37:25;;;;;;;1.02;0.35;;;;;;;;;;5037490;28;20157;-96
2022/09/29 10:40:04;;;;;;;0.45;0.25;;;;;;;;;;5015234;23;20072;-77
2022/09/29 10:42:33;;;;;;;0.68;0.28;;;;;;;;;;5006003;28;20497;-76
2022/09/29 10:45:02;;;;;;;1.42;0.32;;;;;;;;;;5005252;28;20049;-77
2022/09/29 10:47:32;;;;;;;1.27;0.35;;;;;;;;;;4998963;28;20472;-78
2022/09/29 10:50:14;;;;;;;0.57;0.38;;;;;;;;;;5004982;28;20057;-77
2022/09/29 10:52:45;;;;;;;1.10;0.40;;;;;;;;;;5009663;28;20053;-78
2022/09/29 10:55:18;;;;;;;0.20;0.20;;;;;;;;;;5004127;28;20093;-78
2022/09/29 10:57:48;;;;;;;0.17;0.17;;;;;;;;;;5006410;28;20082;-78
2022/09/29 11:00:26;;;;;;;2.95;0.38;;;;;;;;;;5001179;28;20469;-78
2022/09/29 11:02:59;;;;;;;0.22;0.22;;;;;;;;;;5003274;28;20064;-78
2022/09/29 11:05:28;;;;;;;0.38;0.30;;;;;;;;;;5009058;28;20042;-78
2022/09/29 11:07:58;;;;;;;3.42;0.68;;;;;;;;;;5010469;28;20070;-78
2022/09/29 11:10:31;;;;;;;0.20;0.20;;;;;;;;;;5007705;28;20155;-77
2022/09/29 11:12:59;;;;;;;0.50;0.43;;;;;;;;;;5009440;28;20051;-78
2022/09/29 11:15:29;;;;;;;0.10;0.10;;;;;;;;;;5005809;28;20088;-77
2022/09/29 11:17:57;;;;;;;0.40;0.40;;;;;;;;;;5005174;28;20046;-77
2022/09/29 11:20:29;;;;;;;0.45;0.30;;;;;;;;;;4999947;28;20537;-76
2022/09/29 11:23:13;;;;;;;0.20;0.20;;;;;;;;;;5001567;28;20041;-78
2022/09/29 11:25:51;;;;;;;1.73;0.40;;;;;;;;;;4997548;28;20038;-74
2022/09/29 11:28:27;;;;;;;0.38;0.20;;;;;;;;;;5009545;28;20125;-77
2022/09/29 11:31:00;;;;;;;0.35;0.35;;;;;;;;;;5006044;28;20102;-75
2022/09/29 11:33:36;;;;;;;0.30;0.30;;;;;;;;;;5008304;28;20458;-77
2022/09/29 11:36:08;;;;;;;0.50;0.40;;;;;;;;;;5020783;28;20563;-76
2022/09/29 11:38:55;;;;;;;0.30;0.30;;;;;;;;;;5000491;28;20073;-74
2022/09/29 11:41:34;;;;;;;0.40;0.40;;;;;;;;;;5020401;28;20521;-77
2022/09/29 11:44:05;;;;;;;0.30;0.30;;;;;;;;;;5009627;28;20575;-76
2022/09/29 11:46:44;;;;;;;0.43;0.43;;;;;;;;;;5008148;28;20144;-76
2022/09/29 11:49:19;;;;;;;0.43;0.43;;;;;;;;;;5000497;28;20060;-76
2022/09/29 11:51:55;;;;;;;0.30;0.30;;;;;;;;;;5008513;28;20076;-76
2022/09/29 11:54:31;;;;;;;0.28;0.28;;;;;;;;;;5007616;28;20514;-76
2022/09/29 11:57:04;;;;;;;0.20;0.20;;;;;;;;;;4999781;28;20502;-76
2022/09/29 11:59:51;;;;;;;4.38;0.57;;;;;;;;;;5003536;28;20134;-76
2022/09/29 12:02:34;;;;;;;0.55;0.30;;;;;;;;;;4997246;28;20511;-76
2022/09/29 12:05:06;;;;;;;0.10;0.10;;;;;;;;;;4995832;28;20180;-77
2022/09/29 12:07:40;;;;;;;0.40;0.40;;;;;;;;;;5006212;28;20190;-76
2022/09/29 12:10:17;;;;;;;0.30;0.30;;;;;;;;;;5008439;28;20068;-76
2022/09/29 12:12:57;;;;;;;0.57;0.37;;;;;;;;;;5013360;28;20061;-77
2022/09/29 12:15:32;;;;;;;0.20;0.20;;;;;;;;;;5014091;28;20456;-76
2022/09/29 12:18:09;;;;;;;0.65;0.65;;;;;;;;;;5025563;28;20057;-77
2022/09/29 12:20:40;;;;;;;0.30;0.30;;;;;;;;;;5021131;28;20061;-76
2022/09/29 12:23:11;;;;;;;0.30;0.30;;;;;;;;;;5028163;28;20123;-77
2022/09/29 12:25:41;;;;;;;0.95;0.52;;;;;;;;;;5025392;28;20053;-77
2022/09/29 12:28:13;;;;;;;0.40;0.40;;;;;;;;;;5030472;28;20044;-76
2022/09/29 12:30:44;;;;;;;0.22;0.20;;;;;;;;;;5034149;28;20049;-77
2022/09/29 12:33:16;;;;;;;0.22;0.22;;;;;;;;;;5020922;28;20060;-78
2022/09/29 12:35:48;;;;;;;1.17;0.50;;;;;;;;;;5012373;28;20058;-76
2022/09/29 12:38:19;;;;;;;0.73;0.35;;;;;;;;;;5015337;28;20527;-77
2022/09/29 12:40:50;;;;;;;0.47;0.38;;;;;;;;;;5020920;28;20459;-77
2022/09/29 12:43:23;;;;;;;0.10;0.10;;;;;;;;;;5020863;28;20092;-77
2022/09/29 12:45:56;;;;;;;0.77;0.32;;;;;;;;;;5023374;28;20046;-77
2022/09/29 12:48:29;;;;;;;0.30;0.30;;;;;;;;;;5021290;28;20053;-77
2022/09/29 12:51:01;;;;;;;0.32;0.32;;;;;;;;;;5025012;28;20147;-77
2022/09/29 12:53:32;;;;;;;0.10;0.10;;;;;;;;;;5023585;28;20128;-77
2022/09/29 12:56:03;;;;;;;0.73;0.40;;;;;;;;;;5019056;28;20385;-78
2022/09/29 12:58:36;;;;;;;6.28;0.70;;;;;;;;;;5021299;28;20049;-76
2022/09/29 13:01:13;;;;;;;1.25;0.20;;;;;;;;;;5020670;28;20059;-75
2022/09/29 13:04:02;;;;;;;0.20;0.20;;;;;;;;;;5020132;28;20045;-76
2022/09/29 13:06:45;;;;;;;0.88;0.60;;;;;;;;;;5020242;28;20061;-75
2022/09/29 13:09:29;;;;;;;0.30;0.30;;;;;;;;;;5018069;28;20128;-75
2022/09/29 13:12:05;;;;;;;0.40;0.40;;;;;;;;;;5017532;28;20053;-76
2022/09/29 13:14:42;;;;;;;0.45;0.30;;;;;;;;;;5017873;28;20136;-76
2022/09/29 13:17:18;;;;;;;0.75;0.40;;;;;;;;;;4995736;28;20270;-75
2022/09/29 13:20:08;;;;;;;0.60;0.50;;;;;;;;;;5005572;28;20092;-75
2022/09/29 13:22:57;;;;;;;0.17;0.17;;;;;;;;;;4975110;28;20050;-76
2022/09/29 13:25:28;;;;;;;0.63;0.38;;;;;;;;;;4994251;28;20394;-76
2022/09/29 13:27:57;;;;;;;0.60;0.60;;;;;;;;;;5002432;28;20090;-75
2022/09/29 13:30:28;;;;;;;0.45;0.43;;;;;;;;;;5006693;28;20723;-75
2022/09/29 13:32:59;;;;;;;0.30;0.30;;;;;;;;;;5006213;28;20052;-76
2022/09/29 13:35:27;;;;;;;0.85;0.43;;;;;;;;;;5003231;28;20176;-75
2022/09/29 13:37:57;;;;;;;1.10;0.30;;;;;;;;;;5003388;28;20100;-75
2022/09/29 13:40:27;;;;;;;1.27;0.82;;;;;;;;;;5006401;28;20050;-75
2022/09/29 13:42:57;;;;;;;0.10;0.10;;;;;;;;;;5005919;28;20065;-75
2022/09/29 13:45:43;;;;;;;0.30;0.30;;;;;;;;;;5004081;28;20054;-76
2022/09/29 13:48:30;;;;;;;0.22;0.22;;;;;;;;;;4998751;28;20050;-76
2022/09/29 13:51:20;;;;;;;0.38;0.38;;;;;;;;;;5006406;28;20053;-76
2022/09/29 13:54:08;;;;;;;1.13;0.45;;;;;;;;;;5006003;28;20129;-76
2022/09/29 13:56:37;;;;;;;0.28;0.28;;;;;;;;;;5003225;28;20108;-76
2022/09/29 13:59:14;;;;;;;0.68;0.35;;;;;;;;;;5004192;28;20058;-76
2022/09/29 14:01:42;;;;;;;0.43;0.43;;;;;;;;;;5007095;28;20053;-76
2022/09/29 14:04:26;;;;;;;0.55;0.32;;;;;;;;;;5007252;28;20084;-76
2022/09/29 14:06:56;;;;;;;2.30;0.55;;;;;;;;;;5002236;28;20045;-76
2022/09/29 14:09:32;;;;;;;0.52;0.52;;;;;;;;;;5026154;28;20073;-77
2022/09/29 14:12:03;;;;;;;0.45;0.38;;;;;;;;;;5025969;28;20050;-77
2022/09/29 14:14:32;;;;;;;0.40;0.40;;;;;;;;;;5025164;28;20252;-76
2022/09/29 14:17:04;;;;;;;1.48;0.20;;;;;;;;;;5005895;28;20042;-76
2022/09/29 14:19:36;;;;;;;0.90;0.47;;;;;;;;;;5009399;28;20517;-76
2022/09/29 14:22:06;;;;;;;0.20;0.20;;;;;;;;;;5007807;28;20075;-76
2022/09/29 14:24:46;;;;;;;1.73;0.77;;;;;;;;;;5009439;28;20521;-76
2022/09/29 14:27:32;;;;;;;0.57;0.40;;;;;;;;;;5008659;28;20054;-76
2022/09/29 14:30:15;;;;;;;0.40;0.40;;;;;;;;;;5006902;28;20054;-77
2022/09/29 14:32:47;;;;;;;0.38;0.38;;;;;;;;;;5006626;28;20050;-77
2022/09/29 14:35:18;;;;;;;0.75;0.40;;;;;;;;;;5002084;28;20104;-77
2022/09/29 14:37:51;;;;;;;1.45;1.08;;;;;;;;;;5011394;28;20073;-76
2022/09/29 14:40:28;;;;;;;0.73;0.57;;;;;;;;;;5010507;28;20088;-76
2022/09/29 14:43:20;;;;;;;1.05;0.47;;;;;;;;;;5008340;28;20058;-77
2022/09/29 14:51:59;;;;;;;0.47;0.40;;;;;;;;;;5010496;28;20049;-76
2022/09/29 14:54:41;;;;;;;0.98;0.50;;;;;;;;;;5015727;28;20513;-77
2022/09/29 14:57:16;;;;;;;0.25;0.25;;;;;;;;;;5011948;28;20053;-77
2022/09/29 14:59:52;;;;;;;0.60;0.60;;;;;;;;;;5013330;28;20105;-76
2022/09/29 15:02:22;;;;;;;0.40;0.40;;;;;;;;;;5008175;28;20064;-76
2022/09/29 15:04:50;;;;;;;0.15;0.15;;;;;;;;;;5009764;28;20037;-77
2022/09/29 15:07:20;;;;;;;2.00;0.77;;;;;;;;;;5039670;28;20137;-77
2022/09/29 15:09:51;;;;;;;0.38;0.38;;;;;;;;;;5027664;28;20049;-77
2022/09/29 15:12:21;;;;;;;1.05;0.73;;;;;;;;;;5026771;28;20077;-77
2022/09/29 15:14:50;;;;;;;0.68;0.50;;;;;;;;;;5023065;28;20560;-75
2022/09/29 15:17:24;;;;;;;0.93;0.88;;;;;;;;;;5028260;28;20120;-77
2022/09/29 15:19:57;;;;;;;0.28;0.28;;;;;;;;;;5030890;28;20046;-77